sensor_id;sensor_type;location;lat;lon;timestamp;temperature;humidity
5868;DHT22;2960;49.142;7.768;2022-11-13T00:00:00;9.50;80.50
5868;DHT22;2960;49.142;7.768;2022-11-13T00:02:28;9.50;81.30
5868;DHT22;2960;49.142;7.768;2022-11-13T00:04:58;9.50;81.40
5868;DHT22;2960;49.142;7.768;2022-11-13T00:07:26;9.50;80.60
5868;DHT22;2960;49.142;7.768;2022-11-13T00:09:53;9.50;80.60
5868;DHT22;2960;49.142;7.768;2022-11-13T00:12:20;9.50;80.50
5868;DHT22;2960;49.142;7.768;2022-11-13T00:14:47;9.50;80.50
5868;DHT22;2960;49.142;7.768;2022-11-13T00:17:14;9.50;80.50
5868;DHT22;2960;49.142;7.768;2022-11-13T00:19:43;9.50;80.40
5868;DHT22;2960;49.142;7.768;2022-11-13T00:22:10;9.50;80.40
5868;DHT22;2960;49.142;7.768;2022-11-13T00:24:37;9.50;80.40
5868;DHT22;2960;49.142;7.768;2022-11-13T00:27:04;9.50;80.50
5868;DHT22;2960;49.142;7.768;2022-11-13T00:29:31;9.50;80.50
5868;DHT22;2960;49.142;7.768;2022-11-13T00:31:58;9.50;80.60
5868;DHT22;2960;49.142;7.768;2022-11-13T00:34:26;9.50;80.60
5868;DHT22;2960;49.142;7.768;2022-11-13T00:36:54;9.50;80.60
5868;DHT22;2960;49.142;7.768;2022-11-13T00:39:21;9.50;80.60
5868;DHT22;2960;49.142;7.768;2022-11-13T00:41:48;9.50;80.70
5868;DHT22;2960;49.142;7.768;2022-11-13T00:44:15;9.50;80.60
5868;DHT22;2960;49.142;7.768;2022-11-13T00:46:42;9.50;80.60
5868;DHT22;2960;49.142;7.768;2022-11-13T00:49:09;9.50;80.50
5868;DHT22;2960;49.142;7.768;2022-11-13T00:51:37;9.40;80.50
5868;DHT22;2960;49.142;7.768;2022-11-13T00:54:06;9.40;81.30
5868;DHT22;2960;49.142;7.768;2022-11-13T00:56:33;9.50;80.70
5868;DHT22;2960;49.142;7.768;2022-11-13T00:59:00;9.50;80.70
5868;DHT22;2960;49.142;7.768;2022-11-13T01:01:27;9.50;80.60
5868;DHT22;2960;49.142;7.768;2022-11-13T01:03:54;9.40;80.50
5868;DHT22;2960;49.142;7.768;2022-11-13T01:06:23;9.40;80.50
5868;DHT22;2960;49.142;7.768;2022-11-13T01:08:53;9.40;80.50
5868;DHT22;2960;49.142;7.768;2022-11-13T01:11:23;9.40;80.50
5868;DHT22;2960;49.142;7.768;2022-11-13T01:13:52;9.40;80.50
5868;DHT22;2960;49.142;7.768;2022-11-13T01:16:21;9.40;80.60
5868;DHT22;2960;49.142;7.768;2022-11-13T01:18:52;9.40;80.70
5868;DHT22;2960;49.142;7.768;2022-11-13T01:21:21;9.40;80.80
5868;DHT22;2960;49.142;7.768;2022-11-13T01:23:49;9.40;80.80
5868;DHT22;2960;49.142;7.768;2022-11-13T01:26:19;9.40;80.80
5868;DHT22;2960;49.142;7.768;2022-11-13T01:28:49;9.40;80.80
5868;DHT22;2960;49.142;7.768;2022-11-13T01:31:18;9.40;80.70
5868;DHT22;2960;49.142;7.768;2022-11-13T01:33:47;9.40;80.70
5868;DHT22;2960;49.142;7.768;2022-11-13T01:36:16;9.40;80.60
5868;DHT22;2960;49.142;7.768;2022-11-13T01:38:46;9.40;80.60
5868;DHT22;2960;49.142;7.768;2022-11-13T01:41:21;9.40;80.60
5868;DHT22;2960;49.142;7.768;2022-11-13T01:43:51;9.40;80.50
5868;DHT22;2960;49.142;7.768;2022-11-13T01:46:25;9.40;80.60
5868;DHT22;2960;49.142;7.768;2022-11-13T01:48:59;9.40;80.60
5868;DHT22;2960;49.142;7.768;2022-11-13T01:51:32;9.40;80.60
5868;DHT22;2960;49.142;7.768;2022-11-13T01:54:02;9.40;80.50
5868;DHT22;2960;49.142;7.768;2022-11-13T01:56:33;9.40;80.50
5868;DHT22;2960;49.142;7.768;2022-11-13T01:59:05;9.40;80.40
5868;DHT22;2960;49.142;7.768;2022-11-13T02:01:34;9.40;80.30
5868;DHT22;2960;49.142;7.768;2022-11-13T02:04:01;9.40;80.30
5868;DHT22;2960;49.142;7.768;2022-11-13T02:06:32;9.40;80.20
5868;DHT22;2960;49.142;7.768;2022-11-13T02:09:01;9.40;80.10
5868;DHT22;2960;49.142;7.768;2022-11-13T02:11:29;9.40;80.10
5868;DHT22;2960;49.142;7.768;2022-11-13T02:13:58;9.40;80.10
5868;DHT22;2960;49.142;7.768;2022-11-13T02:16:26;9.40;80.10
5868;DHT22;2960;49.142;7.768;2022-11-13T02:18:54;9.40;80.00
5868;DHT22;2960;49.142;7.768;2022-11-13T02:21:29;9.30;79.90
5868;DHT22;2960;49.142;7.768;2022-11-13T02:24:10;9.30;79.80
5868;DHT22;2960;49.142;7.768;2022-11-13T02:26:47;9.30;79.80
5868;DHT22;2960;49.142;7.768;2022-11-13T02:29:15;9.30;79.80
5868;DHT22;2960;49.142;7.768;2022-11-13T02:31:42;9.30;79.80
5868;DHT22;2960;49.142;7.768;2022-11-13T02:34:09;9.30;79.70
5868;DHT22;2960;49.142;7.768;2022-11-13T02:36:36;9.30;79.70
5868;DHT22;2960;49.142;7.768;2022-11-13T02:39:06;9.20;79.50
5868;DHT22;2960;49.142;7.768;2022-11-13T02:41:37;9.20;79.40
5868;DHT22;2960;49.142;7.768;2022-11-13T02:44:05;9.20;79.40
5868;DHT22;2960;49.142;7.768;2022-11-13T02:46:33;9.20;79.40
5868;DHT22;2960;49.142;7.768;2022-11-13T02:49:03;9.10;79.30
5868;DHT22;2960;49.142;7.768;2022-11-13T02:51:30;9.10;79.30
5868;DHT22;2960;49.142;7.768;2022-11-13T02:53:57;9.10;79.30
5868;DHT22;2960;49.142;7.768;2022-11-13T02:56:24;9.00;79.20
5868;DHT22;2960;49.142;7.768;2022-11-13T02:58:53;9.00;79.30
5868;DHT22;2960;49.142;7.768;2022-11-13T03:01:20;9.00;79.20
5868;DHT22;2960;49.142;7.768;2022-11-13T03:03:47;9.00;79.20
5868;DHT22;2960;49.142;7.768;2022-11-13T03:06:14;8.90;79.10
5868;DHT22;2960;49.142;7.768;2022-11-13T03:08:41;8.90;79.00
5868;DHT22;2960;49.142;7.768;2022-11-13T03:11:10;8.90;79.00
5868;DHT22;2960;49.142;7.768;2022-11-13T03:13:38;8.90;78.90
5868;DHT22;2960;49.142;7.768;2022-11-13T03:16:11;8.80;78.80
5868;DHT22;2960;49.142;7.768;2022-11-13T03:18:39;8.80;78.80
5868;DHT22;2960;49.142;7.768;2022-11-13T03:21:12;8.80;78.80
5868;DHT22;2960;49.142;7.768;2022-11-13T03:23:41;8.70;78.70
5868;DHT22;2960;49.142;7.768;2022-11-13T03:26:11;8.70;78.70
5868;DHT22;2960;49.142;7.768;2022-11-13T03:28:39;8.60;78.50
5868;DHT22;2960;49.142;7.768;2022-11-13T03:31:11;8.60;78.50
5868;DHT22;2960;49.142;7.768;2022-11-13T03:33:38;8.60;78.40
5868;DHT22;2960;49.142;7.768;2022-11-13T03:36:05;8.50;78.30
5868;DHT22;2960;49.142;7.768;2022-11-13T03:38:33;8.40;78.20
5868;DHT22;2960;49.142;7.768;2022-11-13T03:41:01;8.40;78.20
5868;DHT22;2960;49.142;7.768;2022-11-13T03:43:28;8.40;78.80
5868;DHT22;2960;49.142;7.768;2022-11-13T03:45:55;8.40;78.00
5868;DHT22;2960;49.142;7.768;2022-11-13T03:48:23;8.40;78.00
5868;DHT22;2960;49.142;7.768;2022-11-13T03:50:52;8.30;77.80
5868;DHT22;2960;49.142;7.768;2022-11-13T03:53:20;8.30;78.50
5868;DHT22;2960;49.142;7.768;2022-11-13T03:55:47;8.30;78.50
5868;DHT22;2960;49.142;7.768;2022-11-13T03:58:14;8.30;77.70
5868;DHT22;2960;49.142;7.768;2022-11-13T04:00:43;8.20;77.50
5868;DHT22;2960;49.142;7.768;2022-11-13T04:03:11;8.10;77.40
5868;DHT22;2960;49.142;7.768;2022-11-13T04:05:40;8.10;77.30
5868;DHT22;2960;49.142;7.768;2022-11-13T04:08:08;8.10;77.40
5868;DHT22;2960;49.142;7.768;2022-11-13T04:10:35;8.10;77.20
5868;DHT22;2960;49.142;7.768;2022-11-13T04:13:02;8.10;77.20
5868;DHT22;2960;49.142;7.768;2022-11-13T04:15:29;8.00;77.10
5868;DHT22;2960;49.142;7.768;2022-11-13T04:17:56;8.00;77.70
5868;DHT22;2960;49.142;7.768;2022-11-13T04:20:23;8.00;77.80
5868;DHT22;2960;49.142;7.768;2022-11-13T04:22:54;8.00;77.10
5868;DHT22;2960;49.142;7.768;2022-11-13T04:25:21;7.90;77.00
5868;DHT22;2960;49.142;7.768;2022-11-13T04:27:49;7.90;77.00
5868;DHT22;2960;49.142;7.768;2022-11-13T04:30:16;7.90;77.00
5868;DHT22;2960;49.142;7.768;2022-11-13T04:32:44;7.90;77.00
5868;DHT22;2960;49.142;7.768;2022-11-13T04:35:11;7.90;76.90
5868;DHT22;2960;49.142;7.768;2022-11-13T04:37:38;7.80;76.80
5868;DHT22;2960;49.142;7.768;2022-11-13T04:40:08;7.80;76.90
5868;DHT22;2960;49.142;7.768;2022-11-13T04:42:36;7.80;76.90
5868;DHT22;2960;49.142;7.768;2022-11-13T04:45:15;7.80;76.80
5868;DHT22;2960;49.142;7.768;2022-11-13T04:47:42;7.80;76.90
5868;DHT22;2960;49.142;7.768;2022-11-13T04:50:10;7.80;76.90
5868;DHT22;2960;49.142;7.768;2022-11-13T04:52:37;7.90;77.10
5868;DHT22;2960;49.142;7.768;2022-11-13T04:55:06;7.70;76.90
5868;DHT22;2960;49.142;7.768;2022-11-13T04:57:34;7.70;76.90
5868;DHT22;2960;49.142;7.768;2022-11-13T05:00:03;7.70;76.90
5868;DHT22;2960;49.142;7.768;2022-11-13T05:02:31;7.70;77.00
5868;DHT22;2960;49.142;7.768;2022-11-13T05:05:00;7.70;77.00
5868;DHT22;2960;49.142;7.768;2022-11-13T05:07:27;7.70;77.00
5868;DHT22;2960;49.142;7.768;2022-11-13T05:09:54;7.70;76.90
5868;DHT22;2960;49.142;7.768;2022-11-13T05:12:22;7.70;77.00
5868;DHT22;2960;49.142;7.768;2022-11-13T05:14:49;7.60;76.90
5868;DHT22;2960;49.142;7.768;2022-11-13T05:17:16;7.60;77.00
5868;DHT22;2960;49.142;7.768;2022-11-13T05:19:43;7.60;77.00
5868;DHT22;2960;49.142;7.768;2022-11-13T05:22:10;7.50;76.90
5868;DHT22;2960;49.142;7.768;2022-11-13T05:24:37;7.60;77.10
5868;DHT22;2960;49.142;7.768;2022-11-13T05:27:04;7.60;77.10
5868;DHT22;2960;49.142;7.768;2022-11-13T05:29:33;7.50;77.00
5868;DHT22;2960;49.142;7.768;2022-11-13T05:32:00;7.40;77.00
5868;DHT22;2960;49.142;7.768;2022-11-13T05:34:27;7.40;77.10
5868;DHT22;2960;49.142;7.768;2022-11-13T05:36:54;7.30;77.20
5868;DHT22;2960;49.142;7.768;2022-11-13T05:39:21;7.30;77.30
5868;DHT22;2960;49.142;7.768;2022-11-13T05:41:48;7.30;78.10
5868;DHT22;2960;49.142;7.768;2022-11-13T05:44:15;7.30;77.40
5868;DHT22;2960;49.142;7.768;2022-11-13T05:46:43;7.30;77.30
5868;DHT22;2960;49.142;7.768;2022-11-13T05:49:10;7.20;77.30
5868;DHT22;2960;49.142;7.768;2022-11-13T05:51:38;7.20;77.30
5868;DHT22;2960;49.142;7.768;2022-11-13T05:54:05;7.20;77.40
5868;DHT22;2960;49.142;7.768;2022-11-13T05:56:34;7.20;77.30
5868;DHT22;2960;49.142;7.768;2022-11-13T05:59:03;7.20;77.40
5868;DHT22;2960;49.142;7.768;2022-11-13T06:01:31;7.20;77.30
5868;DHT22;2960;49.142;7.768;2022-11-13T06:04:02;7.20;77.30
5868;DHT22;2960;49.142;7.768;2022-11-13T06:06:30;7.10;77.30
5868;DHT22;2960;49.142;7.768;2022-11-13T06:08:58;7.10;77.40
5868;DHT22;2960;49.142;7.768;2022-11-13T06:11:28;7.10;77.60
5868;DHT22;2960;49.142;7.768;2022-11-13T06:13:56;7.10;77.70
5868;DHT22;2960;49.142;7.768;2022-11-13T06:16:27;7.10;78.40
5868;DHT22;2960;49.142;7.768;2022-11-13T06:18:56;7.00;77.60
5868;DHT22;2960;49.142;7.768;2022-11-13T06:21:28;7.00;77.60
5868;DHT22;2960;49.142;7.768;2022-11-13T06:23:56;7.00;77.60
5868;DHT22;2960;49.142;7.768;2022-11-13T06:26:26;7.00;77.70
5868;DHT22;2960;49.142;7.768;2022-11-13T06:28:54;7.00;77.80
5868;DHT22;2960;49.142;7.768;2022-11-13T06:31:23;6.90;77.70
5868;DHT22;2960;49.142;7.768;2022-11-13T06:33:51;6.90;77.70
5868;DHT22;2960;49.142;7.768;2022-11-13T06:36:20;7.00;77.90
5868;DHT22;2960;49.142;7.768;2022-11-13T06:38:51;7.00;77.80
5868;DHT22;2960;49.142;7.768;2022-11-13T06:41:20;6.90;77.70
5868;DHT22;2960;49.142;7.768;2022-11-13T06:43:48;6.90;77.70
5868;DHT22;2960;49.142;7.768;2022-11-13T06:46:17;6.90;77.70
5868;DHT22;2960;49.142;7.768;2022-11-13T06:48:46;7.00;77.80
5868;DHT22;2960;49.142;7.768;2022-11-13T06:51:16;6.90;77.70
5868;DHT22;2960;49.142;7.768;2022-11-13T06:53:47;7.00;77.80
5868;DHT22;2960;49.142;7.768;2022-11-13T06:56:16;7.00;77.80
5868;DHT22;2960;49.142;7.768;2022-11-13T06:58:43;6.90;77.60
5868;DHT22;2960;49.142;7.768;2022-11-13T07:01:13;7.00;77.70
5868;DHT22;2960;49.142;7.768;2022-11-13T07:03:41;7.00;77.70
5868;DHT22;2960;49.142;7.768;2022-11-13T07:06:11;7.00;77.70
5868;DHT22;2960;49.142;7.768;2022-11-13T07:08:39;7.00;77.70
5868;DHT22;2960;49.142;7.768;2022-11-13T07:11:09;7.00;77.60
5868;DHT22;2960;49.142;7.768;2022-11-13T07:13:47;6.90;77.50
5868;DHT22;2960;49.142;7.768;2022-11-13T07:16:18;6.90;77.60
5868;DHT22;2960;49.142;7.768;2022-11-13T07:18:48;6.90;77.60
5868;DHT22;2960;49.142;7.768;2022-11-13T07:21:17;6.90;77.50
5868;DHT22;2960;49.142;7.768;2022-11-13T07:23:46;6.90;77.60
5868;DHT22;2960;49.142;7.768;2022-11-13T07:26:14;6.90;77.60
5868;DHT22;2960;49.142;7.768;2022-11-13T07:28:41;6.90;77.60
5868;DHT22;2960;49.142;7.768;2022-11-13T07:31:11;6.90;77.60
5868;DHT22;2960;49.142;7.768;2022-11-13T07:33:40;7.00;77.70
5868;DHT22;2960;49.142;7.768;2022-11-13T07:36:07;7.00;77.70
5868;DHT22;2960;49.142;7.768;2022-11-13T07:38:35;7.00;77.70
5868;DHT22;2960;49.142;7.768;2022-11-13T07:41:03;7.00;78.50
5868;DHT22;2960;49.142;7.768;2022-11-13T07:43:30;7.00;77.70
5868;DHT22;2960;49.142;7.768;2022-11-13T07:45:58;7.00;77.60
5868;DHT22;2960;49.142;7.768;2022-11-13T07:48:26;7.00;77.60
5868;DHT22;2960;49.142;7.768;2022-11-13T07:50:54;7.00;77.60
5868;DHT22;2960;49.142;7.768;2022-11-13T07:53:25;7.00;78.50
5868;DHT22;2960;49.142;7.768;2022-11-13T07:55:52;7.10;77.70
5868;DHT22;2960;49.142;7.768;2022-11-13T07:58:19;7.10;77.70
5868;DHT22;2960;49.142;7.768;2022-11-13T08:00:46;7.10;77.70
5868;DHT22;2960;49.142;7.768;2022-11-13T08:03:15;7.10;77.60
5868;DHT22;2960;49.142;7.768;2022-11-13T08:05:44;7.10;77.70
5868;DHT22;2960;49.142;7.768;2022-11-13T08:08:11;7.10;77.60
5868;DHT22;2960;49.142;7.768;2022-11-13T08:10:42;7.10;78.30
5868;DHT22;2960;49.142;7.768;2022-11-13T08:13:10;7.20;77.60
5868;DHT22;2960;49.142;7.768;2022-11-13T08:15:37;7.20;77.60
5868;DHT22;2960;49.142;7.768;2022-11-13T08:18:05;7.20;77.60
5868;DHT22;2960;49.142;7.768;2022-11-13T08:20:32;7.20;77.60
5868;DHT22;2960;49.142;7.768;2022-11-13T08:23:02;7.30;77.70
5868;DHT22;2960;49.142;7.768;2022-11-13T08:25:31;7.30;77.60
5868;DHT22;2960;49.142;7.768;2022-11-13T08:27:59;7.30;77.50
5868;DHT22;2960;49.142;7.768;2022-11-13T08:30:27;7.30;77.60
5868;DHT22;2960;49.142;7.768;2022-11-13T08:32:54;7.30;77.50
5868;DHT22;2960;49.142;7.768;2022-11-13T08:35:22;7.30;77.60
5868;DHT22;2960;49.142;7.768;2022-11-13T08:37:49;7.40;78.50
5868;DHT22;2960;49.142;7.768;2022-11-13T08:40:18;7.40;77.80
5868;DHT22;2960;49.142;7.768;2022-11-13T08:42:45;7.50;78.00
5868;DHT22;2960;49.142;7.768;2022-11-13T08:45:12;7.60;78.60
5868;DHT22;2960;49.142;7.768;2022-11-13T08:47:39;7.70;78.40
5868;DHT22;2960;49.142;7.768;2022-11-13T08:50:07;7.80;78.30
5868;DHT22;2960;49.142;7.768;2022-11-13T08:52:34;7.90;78.20
5868;DHT22;2960;49.142;7.768;2022-11-13T08:55:01;8.00;78.00
5868;DHT22;2960;49.142;7.768;2022-11-13T08:57:30;8.00;77.80
5868;DHT22;2960;49.142;7.768;2022-11-13T08:59:57;8.00;77.70
5868;DHT22;2960;49.142;7.768;2022-11-13T09:02:24;8.10;77.90
5868;DHT22;2960;49.142;7.768;2022-11-13T09:04:51;8.10;77.90
5868;DHT22;2960;49.142;7.768;2022-11-13T09:07:18;8.20;78.00
5868;DHT22;2960;49.142;7.768;2022-11-13T09:09:45;8.30;78.00
5868;DHT22;2960;49.142;7.768;2022-11-13T09:12:12;8.40;78.20
5868;DHT22;2960;49.142;7.768;2022-11-13T09:14:41;8.50;78.30
5868;DHT22;2960;49.142;7.768;2022-11-13T09:17:08;8.70;79.20
5868;DHT22;2960;49.142;7.768;2022-11-13T09:19:35;8.90;78.50
5868;DHT22;2960;49.142;7.768;2022-11-13T09:22:02;9.20;78.70
5868;DHT22;2960;49.142;7.768;2022-11-13T09:24:29;9.40;78.50
5868;DHT22;2960;49.142;7.768;2022-11-13T09:26:56;9.70;78.30
5868;DHT22;2960;49.142;7.768;2022-11-13T09:29:23;9.90;78.00
5868;DHT22;2960;49.142;7.768;2022-11-13T09:31:54;10.10;76.60
5868;DHT22;2960;49.142;7.768;2022-11-13T09:34:21;10.50;77.20
5868;DHT22;2960;49.142;7.768;2022-11-13T09:36:51;10.80;77.90
5868;DHT22;2960;49.142;7.768;2022-11-13T09:39:18;11.40;78.50
5868;DHT22;2960;49.142;7.768;2022-11-13T09:41:49;12.10;78.40
5868;DHT22;2960;49.142;7.768;2022-11-13T09:44:21;12.70;77.80
5868;DHT22;2960;49.142;7.768;2022-11-13T09:47:01;13.40;77.00
5868;DHT22;2960;49.142;7.768;2022-11-13T09:49:34;14.00;76.20
5868;DHT22;2960;49.142;7.768;2022-11-13T09:52:14;14.50;75.50
5868;DHT22;2960;49.142;7.768;2022-11-13T09:54:46;15.10;74.90
5868;DHT22;2960;49.142;7.768;2022-11-13T09:57:23;15.60;73.90
5868;DHT22;2960;49.142;7.768;2022-11-13T09:59:57;16.20;73.50
5868;DHT22;2960;49.142;7.768;2022-11-13T10:02:38;16.60;72.00
5868;DHT22;2960;49.142;7.768;2022-11-13T10:05:18;17.10;71.10
5868;DHT22;2960;49.142;7.768;2022-11-13T10:07:52;17.50;70.70
5868;DHT22;2960;49.142;7.768;2022-11-13T10:10:35;18.00;69.30
5868;DHT22;2960;49.142;7.768;2022-11-13T10:13:17;18.40;67.90
5868;DHT22;2960;49.142;7.768;2022-11-13T10:15:50;18.80;66.80
5868;DHT22;2960;49.142;7.768;2022-11-13T10:18:22;19.10;65.70
5868;DHT22;2960;49.142;7.768;2022-11-13T10:20:55;19.40;65.00
5868;DHT22;2960;49.142;7.768;2022-11-13T10:23:26;19.70;64.80
5868;DHT22;2960;49.142;7.768;2022-11-13T10:25:56;20.00;63.20
5868;DHT22;2960;49.142;7.768;2022-11-13T10:28:27;20.30;62.40
5868;DHT22;2960;49.142;7.768;2022-11-13T10:30:54;20.60;61.90
5868;DHT22;2960;49.142;7.768;2022-11-13T10:33:23;20.80;60.90
5868;DHT22;2960;49.142;7.768;2022-11-13T10:35:55;20.90;60.20
5868;DHT22;2960;49.142;7.768;2022-11-13T10:38:28;21.20;60.10
5868;DHT22;2960;49.142;7.768;2022-11-13T10:41:10;21.40;59.70
5868;DHT22;2960;49.142;7.768;2022-11-13T10:43:52;21.70;59.10
5868;DHT22;2960;49.142;7.768;2022-11-13T10:46:21;21.90;58.50
5868;DHT22;2960;49.142;7.768;2022-11-13T10:48:51;22.20;57.80
5868;DHT22;2960;49.142;7.768;2022-11-13T10:51:22;22.40;56.40
5868;DHT22;2960;49.142;7.768;2022-11-13T10:53:52;22.70;56.00
5868;DHT22;2960;49.142;7.768;2022-11-13T10:56:24;22.90;54.80
5868;DHT22;2960;49.142;7.768;2022-11-13T10:59:09;23.10;54.10
5868;DHT22;2960;49.142;7.768;2022-11-13T11:01:37;23.30;53.60
5868;DHT22;2960;49.142;7.768;2022-11-13T11:04:11;23.40;53.20
5868;DHT22;2960;49.142;7.768;2022-11-13T11:06:40;23.60;52.90
5868;DHT22;2960;49.142;7.768;2022-11-13T11:09:15;23.80;52.50
5868;DHT22;2960;49.142;7.768;2022-11-13T11:11:57;24.00;51.90
5868;DHT22;2960;49.142;7.768;2022-11-13T11:14:56;24.20;51.60
5868;DHT22;2960;49.142;7.768;2022-11-13T11:17:30;24.30;50.90
5868;DHT22;2960;49.142;7.768;2022-11-13T11:20:05;24.50;50.10
5868;DHT22;2960;49.142;7.768;2022-11-13T11:22:37;24.60;49.80
5868;DHT22;2960;49.142;7.768;2022-11-13T11:25:09;24.70;49.80
5868;DHT22;2960;49.142;7.768;2022-11-13T11:27:42;24.80;49.00
5868;DHT22;2960;49.142;7.768;2022-11-13T11:30:18;24.90;48.60
5868;DHT22;2960;49.142;7.768;2022-11-13T11:32:52;25.00;48.20
5868;DHT22;2960;49.142;7.768;2022-11-13T11:35:30;25.10;48.00
5868;DHT22;2960;49.142;7.768;2022-11-13T11:38:09;25.20;47.90
5868;DHT22;2960;49.142;7.768;2022-11-13T11:40:41;25.40;47.10
5868;DHT22;2960;49.142;7.768;2022-11-13T11:43:16;25.40;46.50
5868;DHT22;2960;49.142;7.768;2022-11-13T11:45:47;25.50;46.10
5868;DHT22;2960;49.142;7.768;2022-11-13T11:48:16;25.50;45.90
5868;DHT22;2960;49.142;7.768;2022-11-13T11:50:49;25.50;45.50
5868;DHT22;2960;49.142;7.768;2022-11-13T11:53:33;25.60;45.30
5868;DHT22;2960;49.142;7.768;2022-11-13T11:56:13;25.60;44.80
5868;DHT22;2960;49.142;7.768;2022-11-13T12:02:26;25.40;42.90
5868;DHT22;2960;49.142;7.768;2022-11-13T12:05:15;25.20;42.80
5868;DHT22;2960;49.142;7.768;2022-11-13T12:07:55;25.00;42.30
5868;DHT22;2960;49.142;7.768;2022-11-13T12:10:34;24.80;41.70
5868;DHT22;2960;49.142;7.768;2022-11-13T12:13:18;24.60;41.20
5868;DHT22;2960;49.142;7.768;2022-11-13T12:15:58;24.40;41.50
5868;DHT22;2960;49.142;7.768;2022-11-13T12:18:36;24.30;41.60
5868;DHT22;2960;49.142;7.768;2022-11-13T12:21:20;24.20;41.80
5868;DHT22;2960;49.142;7.768;2022-11-13T12:24:17;24.20;41.80
5868;DHT22;2960;49.142;7.768;2022-11-13T12:27:18;24.20;41.80
5868;DHT22;2960;49.142;7.768;2022-11-13T12:30:00;24.20;41.70
5868;DHT22;2960;49.142;7.768;2022-11-13T12:35:44;24.30;41.60
5868;DHT22;2960;49.142;7.768;2022-11-13T12:38:19;24.30;41.30
5868;DHT22;2960;49.142;7.768;2022-11-13T12:40:58;24.40;41.90
5868;DHT22;2960;49.142;7.768;2022-11-13T12:43:37;24.50;41.30
5868;DHT22;2960;49.142;7.768;2022-11-13T12:46:13;24.60;41.30
5868;DHT22;2960;49.142;7.768;2022-11-13T12:48:42;24.60;41.20
5868;DHT22;2960;49.142;7.768;2022-11-13T12:51:11;24.70;41.00
5868;DHT22;2960;49.142;7.768;2022-11-13T12:53:44;24.80;40.70
5868;DHT22;2960;49.142;7.768;2022-11-13T12:56:17;24.90;40.60
5868;DHT22;2960;49.142;7.768;2022-11-13T12:58:58;25.00;40.40
5868;DHT22;2960;49.142;7.768;2022-11-13T13:01:29;25.00;40.10
5868;DHT22;2960;49.142;7.768;2022-11-13T13:04:16;25.10;40.10
5868;DHT22;2960;49.142;7.768;2022-11-13T13:07:16;25.20;40.00
5868;DHT22;2960;49.142;7.768;2022-11-13T13:10:00;25.20;39.80
5868;DHT22;2960;49.142;7.768;2022-11-13T13:12:42;25.20;39.50
5868;DHT22;2960;49.142;7.768;2022-11-13T13:15:27;25.20;39.50
5868;DHT22;2960;49.142;7.768;2022-11-13T13:18:07;25.20;39.40
5868;DHT22;2960;49.142;7.768;2022-11-13T13:20:37;25.20;39.30
5868;DHT22;2960;49.142;7.768;2022-11-13T13:23:08;25.10;39.30
5868;DHT22;2960;49.142;7.768;2022-11-13T13:25:37;25.00;39.20
5868;DHT22;2960;49.142;7.768;2022-11-13T13:28:16;24.80;39.00
5868;DHT22;2960;49.142;7.768;2022-11-13T13:30:55;24.70;39.00
5868;DHT22;2960;49.142;7.768;2022-11-13T13:33:37;24.50;38.80
5868;DHT22;2960;49.142;7.768;2022-11-13T13:36:18;24.30;38.60
5868;DHT22;2960;49.142;7.768;2022-11-13T13:38:55;24.00;38.50
5868;DHT22;2960;49.142;7.768;2022-11-13T13:41:35;23.70;38.50
5868;DHT22;2960;49.142;7.768;2022-11-13T13:44:39;23.40;38.50
5868;DHT22;2960;49.142;7.768;2022-11-13T13:47:22;23.10;38.40
5868;DHT22;2960;49.142;7.768;2022-11-13T13:49:51;22.80;38.10
5868;DHT22;2960;49.142;7.768;2022-11-13T13:52:22;22.60;38.10
5868;DHT22;2960;49.142;7.768;2022-11-13T13:54:52;22.40;38.20
5868;DHT22;2960;49.142;7.768;2022-11-13T13:57:20;22.30;38.30
5868;DHT22;2960;49.142;7.768;2022-11-13T13:59:50;22.30;38.30
5868;DHT22;2960;49.142;7.768;2022-11-13T14:02:18;22.30;37.70
5868;DHT22;2960;49.142;7.768;2022-11-13T14:04:48;22.30;37.90
5868;DHT22;2960;49.142;7.768;2022-11-13T14:07:19;22.30;38.00
5868;DHT22;2960;49.142;7.768;2022-11-13T14:09:48;22.20;38.10
5868;DHT22;2960;49.142;7.768;2022-11-13T14:12:17;22.20;38.40
5868;DHT22;2960;49.142;7.768;2022-11-13T14:14:46;22.10;38.60
5868;DHT22;2960;49.142;7.768;2022-11-13T14:17:22;22.10;38.80
5868;DHT22;2960;49.142;7.768;2022-11-13T14:19:51;22.00;38.80
5868;DHT22;2960;49.142;7.768;2022-11-13T14:22:19;21.90;38.80
5868;DHT22;2960;49.142;7.768;2022-11-13T14:24:49;21.80;39.40
5868;DHT22;2960;49.142;7.768;2022-11-13T14:27:23;21.70;38.70
5868;DHT22;2960;49.142;7.768;2022-11-13T14:29:53;21.60;38.60
5868;DHT22;2960;49.142;7.768;2022-11-13T14:32:26;21.50;38.50
5868;DHT22;2960;49.142;7.768;2022-11-13T14:34:58;21.40;38.70
5868;DHT22;2960;49.142;7.768;2022-11-13T14:37:28;21.20;38.90
5868;DHT22;2960;49.142;7.768;2022-11-13T14:40:02;20.90;39.80
5868;DHT22;2960;49.142;7.768;2022-11-13T14:42:33;20.60;39.60
5868;DHT22;2960;49.142;7.768;2022-11-13T14:45:13;20.30;40.00
5868;DHT22;2960;49.142;7.768;2022-11-13T14:47:43;20.00;40.40
5868;DHT22;2960;49.142;7.768;2022-11-13T14:50:23;19.80;40.80
5868;DHT22;2960;49.142;7.768;2022-11-13T14:52:56;19.50;41.10
5868;DHT22;2960;49.142;7.768;2022-11-13T14:55:27;19.20;41.50
5868;DHT22;2960;49.142;7.768;2022-11-13T14:57:56;19.00;41.80
5868;DHT22;2960;49.142;7.768;2022-11-13T15:00:30;18.80;42.20
5868;DHT22;2960;49.142;7.768;2022-11-13T15:03:02;18.60;42.50
5868;DHT22;2960;49.142;7.768;2022-11-13T15:05:29;18.40;42.70
5868;DHT22;2960;49.142;7.768;2022-11-13T15:07:58;18.20;42.80
5868;DHT22;2960;49.142;7.768;2022-11-13T15:10:27;18.00;43.10
5868;DHT22;2960;49.142;7.768;2022-11-13T15:12:55;17.80;43.10
5868;DHT22;2960;49.142;7.768;2022-11-13T15:15:24;17.60;43.30
5868;DHT22;2960;49.142;7.768;2022-11-13T15:17:53;17.30;43.60
5868;DHT22;2960;49.142;7.768;2022-11-13T15:20:24;17.10;44.50
5868;DHT22;2960;49.142;7.768;2022-11-13T15:22:53;16.90;44.10
5868;DHT22;2960;49.142;7.768;2022-11-13T15:25:21;16.70;44.30
5868;DHT22;2960;49.142;7.768;2022-11-13T15:27:49;16.40;44.50
5868;DHT22;2960;49.142;7.768;2022-11-13T15:30:17;16.30;44.90
5868;DHT22;2960;49.142;7.768;2022-11-13T15:32:45;16.10;45.10
5868;DHT22;2960;49.142;7.768;2022-11-13T15:35:15;15.90;45.20
5868;DHT22;2960;49.142;7.768;2022-11-13T15:37:45;15.80;45.50
5868;DHT22;2960;49.142;7.768;2022-11-13T15:40:13;15.60;46.20
5868;DHT22;2960;49.142;7.768;2022-11-13T15:42:41;15.40;45.70
5868;DHT22;2960;49.142;7.768;2022-11-13T15:45:12;15.30;46.00
5868;DHT22;2960;49.142;7.768;2022-11-13T15:47:40;15.20;46.20
5868;DHT22;2960;49.142;7.768;2022-11-13T15:50:08;15.00;46.80
5868;DHT22;2960;49.142;7.768;2022-11-13T15:52:38;14.90;46.40
5868;DHT22;2960;49.142;7.768;2022-11-13T15:55:17;14.80;46.70
5868;DHT22;2960;49.142;7.768;2022-11-13T15:57:46;14.60;46.80
5868;DHT22;2960;49.142;7.768;2022-11-13T16:00:14;14.50;47.00
5868;DHT22;2960;49.142;7.768;2022-11-13T16:02:42;14.30;47.20
5868;DHT22;2960;49.142;7.768;2022-11-13T16:05:10;14.20;47.30
5868;DHT22;2960;49.142;7.768;2022-11-13T16:07:37;14.10;47.50
5868;DHT22;2960;49.142;7.768;2022-11-13T16:10:07;14.00;47.60
5868;DHT22;2960;49.142;7.768;2022-11-13T16:12:35;13.90;47.80
5868;DHT22;2960;49.142;7.768;2022-11-13T16:15:03;13.70;47.80
5868;DHT22;2960;49.142;7.768;2022-11-13T16:17:37;13.70;47.90
5868;DHT22;2960;49.142;7.768;2022-11-13T16:20:10;13.60;48.00
5868;DHT22;2960;49.142;7.768;2022-11-13T16:22:43;13.50;48.10
5868;DHT22;2960;49.142;7.768;2022-11-13T16:25:13;13.40;48.30
5868;DHT22;2960;49.142;7.768;2022-11-13T16:27:42;13.30;48.40
5868;DHT22;2960;49.142;7.768;2022-11-13T16:30:13;13.20;48.50
5868;DHT22;2960;49.142;7.768;2022-11-13T16:32:41;13.10;48.70
5868;DHT22;2960;49.142;7.768;2022-11-13T16:35:11;13.00;48.80
5868;DHT22;2960;49.142;7.768;2022-11-13T16:37:39;12.90;48.90
5868;DHT22;2960;49.142;7.768;2022-11-13T16:40:20;12.80;49.10